Flight Track Log - Related Links

Times and Time Zones

All times are in EDT time to prevent confusion due to time zone crossing. See the N612CT flight status page for this flight to view local times or setup timezone preferences in your user account.

Time Position Orientation Groundspeed Altitude Reporting Facility
EDT Latitude Longitude Course Direction KTS MPH feet Rate Location/Type
Sat 03:50:36 PM 28.0500 -81.7667 180° South 93 107 800  Level Tampa TRACON
Sat 03:51:49 PM 28.0000 -81.7667 180° South 131 151 1,600 779 Climbing Tampa TRACON
Sat 03:52:47 PM 27.9711 -81.7536 158° South 29 33 2,500 712 Climbing Miami Center
Sat 03:53:47 PM 27.9336 -81.7494 174° South 50 58 3,000 250 Climbing Miami Center
Sat 03:54:47 PM 27.8900 -81.7453 175° South 126 145 3,000 500 Level Miami Center
Sat 03:55:47 PM 27.8525 -81.7392 172° South 140 161 4,000 900 Climbing Miami Center
Sat 03:56:47 PM 27.8153 -81.7350 174° South 140 161 4,800 750 Climbing Miami Center
Sat 03:57:47 PM 27.7819 -81.7289 171° South 140 161 5,500 750 Climbing Miami Center
Sat 03:58:47 PM 27.7444 -81.7250 175° South 135 155 6,300 750 Climbing Miami Center
Sat 03:59:47 PM 27.7050 -81.7186 172° South 135 155 7,000 350 Climbing Miami Center
Sat 04:00:47 PM 27.6614 -81.7144 175° South 147 169 7,000  Level Miami Center
Sat 04:01:47 PM 27.6158 -81.7078 173° South 159 183 7,000  Level Miami Center
Sat 04:02:47 PM 27.5742 -81.7036 175° South 165 190 7,000  Level Miami Center
Sat 04:03:47 PM 27.5264 -81.6994 176° South 165 190 7,000  Level Miami Center
Sat 04:04:47 PM 27.4806 -81.6950 175° South 160 184 7,000  Level Miami Center
Sat 04:05:47 PM 27.4369 -81.6886 173° South 160 184 7,000  Level Miami Center
Sat 04:06:47 PM 27.3933 -81.6819 172° South 160 184 7,000  Level Miami Center
Sat 04:07:47 PM 27.3475 -81.6778 175° South 160 184 7,000  Level Miami Center
Sat 04:08:47 PM 27.3039 -81.6714 173° South 160 184 7,000  Level Miami Center
Sat 04:09:47 PM 27.2603 -81.6672 175° South 160 184 7,000  Level Miami Center
Sat 04:10:47 PM 27.2167 -81.6608 173° South 160 184 7,000  Level Miami Center
Sat 04:11:47 PM 27.1728 -81.6567 175° South 160 184 7,000  Level Miami Center
Sat 04:12:47 PM 27.1272 -81.6522 175° South 160 184 7,000  Level Miami Center
Sat 04:13:47 PM 27.0814 -81.6458 173° South 160 184 7,000  Level Miami Center
Sat 04:14:47 PM 27.0356 -81.6392 173° South 160 184 7,000  Level Miami Center
Sat 04:15:47 PM 26.9900 -81.6350 175° South 160 184 7,000  Level Miami Center
Sat 04:16:47 PM 26.9442 -81.6308 175° South 160 184 7,000  Level Miami Center
Sat 04:17:47 PM 26.8983 -81.6267 175° South 165 190 7,000 -200 Level Miami Center
Sat 04:18:47 PM 26.8525 -81.6247 178° South 165 190 6,600 -450 Descending Miami Center
Sat 04:19:47 PM 26.8025 -81.6203 175° South 177 204 6,100 -500 Descending Miami Center
Sat 04:20:47 PM 26.7525 -81.6161 176° South 177 204 5,600 -500 Descending Miami Center
Sat 04:22:00 PM 26.7065 -81.6390 204° Southwest  Level FlightAware Approximate
Sat 04:29:00 PM 26.4228 -81.7184 189° South  Level FlightAware Approximate
Sat 04:30:00 PM 26.3818 -81.7253 189° South  Level FlightAware Approximate
Sat 04:31:00 PM 26.3409 -81.7321 188° South  Level FlightAware Approximate
Sat 04:32:00 PM 26.3000 -81.7389 188° South  Level FlightAware Approximate
Sat 04:33:00 PM 26.2590 -81.7457 188° South  Level FlightAware Approximate
Sat 04:34:00 PM 26.2181 -81.7530 190° South  Level FlightAware Approximate
Sat 04:35:00 PM 26.1774 -81.7612 190° South  Level FlightAware Approximate
Sat 04:36:00 PM 26.1524 -81.7756 190° South  Level Estimated
Sat 04:37:00 PM 26.1524 -81.7756 107° East  Level Estimated
Sat 04:38:00 PM 26.1524 -81.7756 190° South  Level Estimated
Sat 04:39:00 PM 26.1524 -81.7756 107° East  Level Estimated
Sat 04:40:00 PM 26.1524 -81.7756 107° East  Level Estimated

Login

Don't have an account? Register now (free) for customized features, flight alerts, and more!